Time;durP1;ratioP1;P1;durP2;ratioP2;P2;SDS_P1;SDS_P2;PMS_P1;PMS_P2;Temp;Humidity;BMP_temperature;BMP_pressure;BME280_temperature;BME280_humidity;BME280_pressure;Samples;Min_cycle;Max_cycle;Signal;HPM_P1;HPM_P2
2021/06/07 00:01:46;;;;;;;4.42;2.58;;;;;;;14.33;96.71;100694.92;1630600;86;36995;-88
2021/06/07 00:04:12;;;;;;;7.00;2.98;;;;;;;14.30;96.76;100690.16;1626503;86;21075;-87
2021/06/07 00:06:39;;;;;;;6.35;3.15;;;;;;;14.29;96.85;100685.25;1651624;86;21019;-88
2021/06/07 00:09:08;;;;;;;4.87;2.75;;;;;;;14.30;96.97;100687.00;1645409;86;21407;-89
2021/06/07 00:11:35;;;;;;;9.13;3.12;;;;;;;14.30;97.00;100684.30;1638760;86;21047;-89
2021/06/07 00:14:04;;;;;;;4.85;3.30;;;;;;;14.30;97.12;100682.95;1666306;85;21792;-88
2021/06/07 00:16:31;;;;;;;6.33;3.25;;;;;;;14.30;97.19;100687.00;1666012;84;21902;-89
2021/06/07 00:18:59;;;;;;;10.65;3.25;;;;;;;14.27;97.32;100688.51;1638348;86;21099;-87
2021/06/07 00:21:29;;;;;;;4.15;2.87;;;;;;;14.24;97.45;100687.29;1649293;84;21744;-88
2021/06/07 00:23:58;;;;;;;7.72;3.45;;;;;;;14.22;97.59;100684.30;1652168;86;21041;-88
2021/06/07 00:26:26;;;;;;;9.10;3.40;;;;;;;14.16;97.68;100683.66;1664951;84;21523;-89
2021/06/07 00:28:55;;;;;;;8.78;3.20;;;;;;;14.15;97.86;100683.73;1659141;84;21120;-88
2021/06/07 00:31:21;;;;;;;10.32;3.12;;;;;;;14.14;97.91;100686.03;1673880;84;21541;-88
2021/06/07 00:33:48;;;;;;;5.60;3.08;;;;;;;14.12;97.78;100681.20;1671517;84;21030;-86
2021/06/07 00:36:20;;;;;;;5.60;3.62;;;;;;;14.10;97.72;100685.80;1665993;84;21056;-88
2021/06/07 00:38:43;;;;;;;6.20;2.75;;;;;;;14.09;97.66;100684.05;1665979;85;21121;-88
2021/06/07 00:41:09;;;;;;;6.80;3.10;;;;;;;14.08;97.63;100683.16;1666613;84;21804;-88
2021/06/07 00:43:37;;;;;;;11.33;3.27;;;;;;;14.08;97.50;100679.61;1673676;84;21061;-87
2021/06/07 00:46:04;;;;;;;5.97;3.12;;;;;;;14.04;97.38;100670.34;1665443;84;21121;-88
2021/06/07 00:48:33;;;;;;;7.03;2.98;;;;;;;14.03;97.34;100671.27;1671919;84;20931;-86
2021/06/07 00:51:03;;;;;;;4.90;3.27;;;;;;;14.02;97.26;100661.92;1668975;84;20950;-88
2021/06/07 00:53:30;;;;;;;7.95;3.72;;;;;;;14.02;97.11;100664.62;1669300;84;21098;-87
2021/06/07 00:56:01;;;;;;;5.65;2.87;;;;;;;14.00;97.01;100663.33;1685701;84;21215;-88
2021/06/07 00:58:37;;;;;;;6.90;2.80;;;;;;;13.98;96.90;100660.34;1659594;85;21301;-87
2021/06/07 01:01:10;;;;;;;4.75;3.05;;;;;;;13.96;96.78;100663.59;1641756;84;21128;-87
2021/06/07 01:03:37;;;;;;;7.80;3.70;;;;;;;13.95;96.64;100666.75;1665554;86;21068;-88
2021/06/07 01:06:07;;;;;;;9.38;3.33;;;;;;;13.94;96.48;100669.05;1630100;86;21287;-87
2021/06/07 01:08:34;;;;;;;6.37;3.40;;;;;;;13.94;96.27;100669.05;1662607;84;21110;-87
2021/06/07 01:11:01;;;;;;;5.80;2.83;;;;;;;13.92;96.08;100664.21;1661689;84;21089;-87
2021/06/07 01:13:27;;;;;;;11.05;2.90;;;;;;;13.93;95.99;100666.44;1648340;86;21145;-87
2021/06/07 01:15:56;;;;;;;5.05;2.92;;;;;;;13.93;95.83;100668.65;1666405;84;21801;-88
2021/06/07 01:18:23;;;;;;;5.40;3.02;;;;;;;13.95;95.58;100669.93;1652512;84;21318;-88
2021/06/07 01:20:58;;;;;;;5.30;3.02;;;;;;;13.95;95.28;100668.09;1665327;84;21372;-88
2021/06/07 01:23:22;;;;;;;6.25;3.30;;;;;;;13.95;95.06;100672.14;1666208;84;21013;-88
2021/06/07 01:25:48;;;;;;;6.62;3.37;;;;;;;13.96;94.92;100664.44;1653849;84;21047;-88
2021/06/07 01:28:18;;;;;;;5.90;2.72;;;;;;;13.96;94.76;100662.24;1644168;84;21055;-88
2021/06/07 01:30:48;;;;;;;6.62;2.83;;;;;;;13.97;94.63;100663.49;1662261;84;21866;-88
2021/06/07 01:33:17;;;;;;;6.83;3.08;;;;;;;13.98;94.42;100668.42;1672768;84;21083;-87
2021/06/07 01:35:43;;;;;;;7.05;3.27;;;;;;;13.97;94.31;100663.49;1666358;84;21974;-88
2021/06/07 01:38:10;;;;;;;4.17;3.40;;;;;;;13.97;94.16;100668.88;1663719;84;21084;-87
2021/06/07 01:40:40;;;;;;;4.62;2.67;;;;;;;13.96;93.99;100669.84;1666205;84;21168;-87
2021/06/07 01:43:06;;;;;;;4.20;2.77;;;;;;;13.97;93.87;100669.38;1668532;84;21871;-88
2021/06/07 01:45:35;;;;;;;7.03;3.47;;;;;;;13.96;93.69;100671.19;1663431;84;21077;-87
2021/06/07 01:48:05;;;;;;;5.33;2.75;;;;;;;13.96;93.62;100671.19;1661773;84;21208;-88
2021/06/07 01:50:31;;;;;;;6.22;2.72;;;;;;;13.96;93.47;100671.19;1663786;84;21560;-87
2021/06/07 01:52:58;;;;;;;6.80;2.90;;;;;;;13.96;93.35;100666.28;1662876;84;21616;-87
2021/06/07 01:55:36;;;;;;;7.37;2.50;;;;;;;13.94;93.19;100667.70;1671352;84;21181;-88
2021/06/07 01:58:05;;;;;;;4.28;2.50;;;;;;;13.92;93.18;100668.25;1655393;84;21092;-88
2021/06/07 02:00:54;;;;;;;5.40;2.77;;;;;;;13.88;93.26;100672.91;1664160;84;21053;-88
2021/06/07 02:03:21;;;;;;;6.35;2.98;;;;;;;13.86;93.38;100675.31;1640115;85;21101;-88
2021/06/07 02:05:52;;;;;;;4.65;2.20;;;;;;;13.84;93.56;100671.33;1653998;84;21035;-89
2021/06/07 02:08:20;;;;;;;5.60;2.72;;;;;;;13.83;93.65;100680.86;1663422;84;21498;-88
2021/06/07 02:10:53;;;;;;;5.90;2.87;;;;;;;13.82;93.79;100681.80;1684580;84;21052;-87
2021/06/07 02:13:20;;;;;;;7.05;2.70;;;;;;;13.80;93.99;100681.87;1672101;84;21116;-88
2021/06/07 02:16:01;;;;;;;5.90;2.70;;;;;;;13.78;94.14;100677.48;1679002;84;21037;-89
2021/06/07 02:18:28;;;;;;;3.02;2.50;;;;;;;13.77;94.19;100680.67;1674503;84;21609;-87
2021/06/07 02:20:56;;;;;;;6.53;3.30;;;;;;;13.77;94.25;100686.52;1616750;86;21678;-87
2021/06/07 02:23:23;;;;;;;6.40;2.92;;;;;;;13.76;94.31;100680.28;1646570;86;21161;-88
2021/06/07 02:25:53;;;;;;;3.98;2.70;;;;;;;13.78;94.42;100684.23;1649814;85;21070;-88
2021/06/07 02:28:19;;;;;;;6.35;2.80;;;;;;;13.82;94.46;100684.50;1649005;85;21102;-87
2021/06/07 02:30:46;;;;;;;6.10;2.60;;;;;;;13.84;94.39;100686.64;1650105;85;21903;-87
2021/06/07 02:33:13;;;;;;;5.33;2.35;;;;;;;13.85;94.33;100686.55;1652241;85;21072;-87
2021/06/07 02:35:40;;;;;;;5.33;2.55;;;;;;;13.89;94.31;100685.92;1649617;85;21057;-86
2021/06/07 02:38:06;;;;;;;7.65;2.70;;;;;;;13.90;94.25;100690.37;1648218;85;21042;-87
2021/06/07 02:40:34;;;;;;;6.53;2.92;;;;;;;13.94;94.21;100689.26;1649026;85;21136;-88
2021/06/07 02:43:00;;;;;;;5.10;2.60;;;;;;;13.99;94.10;100687.20;1649053;85;21651;-88
2021/06/07 02:45:27;;;;;;;6.25;2.70;;;;;;;14.03;94.01;100686.58;1648890;85;21961;-88
2021/06/07 02:47:55;;;;;;;6.40;2.87;;;;;;;14.08;93.86;100690.40;1643939;85;21006;-89
2021/06/07 02:50:26;;;;;;;7.00;2.77;;;;;;;14.11;93.68;100686.19;1639182;85;21585;-88
2021/06/07 02:52:53;;;;;;;11.65;2.87;;;;;;;14.17;93.50;100692.61;1638488;86;21803;-87
2021/06/07 02:55:28;;;;;;;6.72;3.08;;;;;;;14.20;93.30;100696.49;1654108;85;21195;-89
2021/06/07 02:57:55;;;;;;;11.05;2.60;;;;;;;14.24;93.14;100691.33;1635949;85;21721;-89
2021/06/07 03:00:40;;;;;;;9.25;3.17;;;;;;;14.30;93.08;100696.44;1650165;85;21015;-88
2021/06/07 03:03:06;;;;;;;;;;;;;;;14.39;92.85;100699.59;1651911;85;21070;-88
2021/06/07 03:05:34;;;;;;;16.75;3.52;;;;;;;14.49;92.53;100695.48;1633742;86;20357;-89
2021/06/07 03:08:01;;;;;;;13.58;3.10;;;;;;;14.58;92.25;100699.03;1640802;85;21070;-89
2021/06/07 03:10:28;;;;;;;15.55;3.50;;;;;;;14.71;91.87;100694.37;1619851;86;21557;-90
2021/06/07 03:12:55;;;;;;;14.90;4.25;;;;;;;14.83;91.31;100696.41;1619679;87;21136;-88
2021/06/07 03:15:22;;;;;;;19.27;4.37;;;;;;;14.97;90.75;100694.80;1625001;86;21047;-90
2021/06/07 03:17:49;;;;;;;18.27;3.62;;;;;;;15.08;90.18;100693.72;1626043;86;21161;-90
2021/06/07 03:20:17;;;;;;;16.45;3.62;;;;;;;15.20;89.50;100692.66;1657164;85;21548;-90
2021/06/07 03:22:44;;;;;;;13.00;3.70;;;;;;;15.29;88.99;100705.64;1651933;85;21162;-89
2021/06/07 03:25:11;;;;;;;8.43;2.80;;;;;;;15.36;88.34;100696.23;1659755;85;21140;-88
2021/06/07 03:27:38;;;;;;;9.00;3.27;;;;;;;15.41;87.78;100694.16;1664569;84;21080;-88
2021/06/07 03:30:06;;;;;;;8.25;3.17;;;;;;;15.42;87.46;100697.25;1656025;85;21128;-88
2021/06/07 03:32:35;;;;;;;17.77;3.72;;;;;;;15.45;87.33;100702.94;1654383;85;21382;-89
2021/06/07 03:35:04;;;;;;;9.70;3.35;;;;;;;15.47;87.06;100700.56;1656026;84;21130;-90
2021/06/07 03:37:30;;;;;;;8.68;3.30;;;;;;;15.50;86.83;100705.39;1656754;85;21053;-90
2021/06/07 03:39:57;;;;;;;9.63;3.58;;;;;;;15.52;86.59;100704.36;1641822;86;21098;-89
2021/06/07 03:42:23;;;;;;;6.45;2.90;;;;;;;15.54;86.41;100708.31;1655937;86;21168;-89
2021/06/07 03:44:50;;;;;;;7.03;2.92;;;;;;;15.58;86.38;100703.12;1632720;86;21104;-90
2021/06/07 03:47:16;;;;;;;7.00;3.27;;;;;;;15.64;86.24;100710.90;1650930;85;22009;-90
2021/06/07 03:49:43;;;;;;;5.90;2.92;;;;;;;15.74;85.97;100712.09;1657019;84;21432;-90
2021/06/07 03:52:09;;;;;;;7.28;2.87;;;;;;;15.80;85.41;100716.75;1665004;85;21078;-89
2021/06/07 03:54:36;;;;;;;8.98;3.20;;;;;;;15.83;85.21;100713.91;1655530;85;21133;-90
2021/06/07 03:57:06;;;;;;;6.30;3.00;;;;;;;15.84;84.99;100719.20;1657613;85;21582;-89
2021/06/07 03:59:32;;;;;;;9.58;3.10;;;;;;;15.86;84.83;100715.07;1655366;85;22032;-90
2021/06/07 04:02:02;;;;;;;6.60;3.25;;;;;;;15.86;84.82;100715.07;1648052;85;21063;-89
2021/06/07 04:04:28;;;;;;;5.25;2.70;;;;;;;15.88;84.86;100713.15;1656627;85;20970;-89
2021/06/07 04:06:55;;;;;;;12.88;2.55;;;;;;;15.92;84.74;100705.28;1657977;85;21121;-89
2021/06/07 04:09:22;;;;;;;9.23;3.02;;;;;;;15.99;84.82;100703.95;1655939;84;21276;-90
2021/06/07 04:11:49;;;;;;;4.80;2.95;;;;;;;16.10;84.46;100697.05;1626892;86;21164;-89
2021/06/07 04:14:16;;;;;;;4.40;3.10;;;;;;;16.19;84.32;100704.61;1650513;85;21100;-89
2021/06/07 04:16:43;;;;;;;4.45;2.90;;;;;;;16.30;83.93;100697.20;1657666;85;21093;-89
2021/06/07 04:19:09;;;;;;;8.00;3.47;;;;;;;16.36;83.57;100702.73;1649472;85;21052;-89
2021/06/07 04:21:38;;;;;;;5.35;2.52;;;;;;;16.42;83.48;100706.41;1648032;85;21130;-88
2021/06/07 04:24:06;;;;;;;7.90;2.90;;;;;;;16.50;83.34;100704.13;1650875;85;21514;-89
2021/06/07 04:26:34;;;;;;;6.80;3.40;;;;;;;16.55;83.26;100704.72;1648704;85;21686;-89
2021/06/07 04:29:01;;;;;;;7.85;3.35;;;;;;;16.63;83.34;100704.72;1649799;85;21427;-89
2021/06/07 04:31:28;;;;;;;4.25;2.90;;;;;;;16.71;83.11;100699.72;1653482;85;21189;-89
2021/06/07 04:33:56;;;;;;;6.53;3.50;;;;;;;16.83;82.59;100697.59;1649863;85;21204;-89
2021/06/07 04:36:22;;;;;;;7.35;2.90;;;;;;;16.96;82.18;100699.05;1653967;85;21184;-90
2021/06/07 04:38:49;;;;;;;6.83;3.20;;;;;;;17.12;81.79;100704.39;1649565;85;21625;-90
2021/06/07 04:41:15;;;;;;;6.60;3.30;;;;;;;17.31;81.21;100707.28;1650616;85;20998;-90
2021/06/07 04:43:41;;;;;;;7.45;3.08;;;;;;;17.47;80.48;100706.69;1650198;85;21070;-89
2021/06/07 04:46:08;;;;;;;5.55;3.27;;;;;;;17.62;79.93;100709.38;1647897;86;21084;-89
2021/06/07 04:48:35;;;;;;;8.40;3.60;;;;;;;17.78;79.54;100714.66;1651516;85;21114;-89
2021/06/07 04:51:02;;;;;;;5.35;2.90;;;;;;;17.92;79.10;100710.17;1649002;85;21178;-90
2021/06/07 04:53:29;;;;;;;6.97;3.58;;;;;;;18.06;78.53;100718.77;1649083;85;21634;-90
2021/06/07 04:55:55;;;;;;;5.45;3.22;;;;;;;18.17;78.37;100717.53;1649206;85;22366;-89
2021/06/07 04:58:27;;;;;;;6.58;3.60;;;;;;;18.32;78.30;100719.69;1637923;86;21978;-87
2021/06/07 05:01:08;;;;;;;10.13;3.65;;;;;;;18.47;77.88;100723.22;1649077;85;21908;-87
2021/06/07 05:03:35;;;;;;;9.53;3.42;;;;;;;18.60;77.30;100724.09;1650861;85;21102;-89
2021/06/07 05:06:13;;;;;;;6.00;3.15;;;;;;;18.73;76.98;100729.53;1650606;85;21953;-89
2021/06/07 05:08:40;;;;;;;7.47;2.95;;;;;;;18.85;76.63;100729.66;1649471;85;21069;-89
2021/06/07 05:11:07;;;;;;;7.62;3.42;;;;;;;18.98;76.50;100728.30;1656671;84;21157;-89
2021/06/07 05:13:36;;;;;;;6.90;2.85;;;;;;;19.10;76.01;100726.08;1659471;84;21125;-90
2021/06/07 05:16:04;;;;;;;6.97;3.30;;;;;;;19.21;75.17;100724.46;1657671;84;21139;-89
2021/06/07 05:18:33;;;;;;;11.57;3.30;;;;;;;19.28;75.13;100734.78;1688587;84;21544;-90
2021/06/07 05:21:00;;;;;;;6.45;3.75;;;;;;;19.38;74.97;100736.82;1689710;84;21009;-89
2021/06/07 05:23:26;;;;;;;5.62;4.00;;;;;;;19.45;74.93;100746.26;1689940;84;21122;-89
2021/06/07 05:25:53;;;;;;;7.20;3.10;;;;;;;19.47;74.29;100739.74;1688844;83;21743;-89
2021/06/07 05:28:20;;;;;;;6.65;3.22;;;;;;;19.49;73.59;100738.76;1688358;83;21118;-90
2021/06/07 05:30:48;;;;;;;8.28;3.45;;;;;;;19.50;73.96;100733.70;1696881;83;21526;-89
2021/06/07 05:33:15;;;;;;;8.38;4.45;;;;;;;19.62;73.83;100732.81;1690532;83;21588;-89
2021/06/07 05:35:44;;;;;;;7.60;4.30;;;;;;;19.81;73.20;100736.89;1660950;84;21765;-89
2021/06/07 05:38:11;;;;;;;5.35;3.85;;;;;;;19.95;72.66;100736.73;1693193;83;21196;-87
2021/06/07 05:40:37;;;;;;;9.48;3.30;;;;;;;20.06;72.49;100738.66;1690626;83;20972;-88
2021/06/07 05:43:04;;;;;;;12.88;3.15;;;;;;;20.12;72.17;100724.61;1670630;83;21061;-88
2021/06/07 05:45:31;;;;;;;7.10;2.95;;;;;;;20.22;71.85;100722.53;1688180;82;21186;-90
2021/06/07 05:48:06;;;;;;;8.90;3.95;;;;;;;20.36;70.64;100726.91;1686199;83;21543;-89
2021/06/07 05:50:34;;;;;;;7.03;2.97;;;;;;;20.51;69.72;100731.18;1667155;83;21837;-89
2021/06/07 05:53:04;;;;;;;11.08;3.17;;;;;;;20.68;68.91;100735.81;1682082;83;21105;-89
2021/06/07 05:55:37;;;;;;;11.80;3.37;;;;;;;20.80;68.14;100728.05;1684574;83;20990;-91
2021/06/07 05:58:06;;;;;;;6.97;3.72;;;;;;;20.86;67.73;100735.73;1688384;83;20994;-91
2021/06/07 06:00:40;;;;;;;7.53;3.00;;;;;;;20.93;67.85;100736.63;1659586;84;21122;-90
2021/06/07 06:03:07;;;;;;;5.92;3.15;;;;;;;21.01;67.64;100732.80;1657854;84;21168;-87
2021/06/07 06:05:35;;;;;;;6.55;3.27;;;;;;;21.13;66.90;100731.83;1659046;84;21145;-87
2021/06/07 06:08:05;;;;;;;7.17;3.20;;;;;;;21.23;66.26;100732.44;1659237;84;21120;-92
2021/06/07 06:10:34;;;;;;;6.78;3.27;;;;;;;21.35;65.52;100730.09;1647775;84;22364;-90
2021/06/07 06:13:02;;;;;;;6.78;3.52;;;;;;;21.43;65.47;100731.69;1625378;85;21094;-88
2021/06/07 06:15:30;;;;;;;15.60;3.65;;;;;;;21.53;65.58;100733.17;1617546;86;21138;-88
2021/06/07 06:17:58;;;;;;;10.13;3.45;;;;;;;21.63;65.93;100731.91;1626808;85;21522;-89
2021/06/07 06:20:30;;;;;;;8.38;3.62;;;;;;;21.73;66.03;100737.00;1631631;86;22157;-87
2021/06/07 06:22:58;;;;;;;8.53;3.83;;;;;;;21.89;65.89;100731.64;1622318;85;21253;-89
2021/06/07 06:25:26;;;;;;;6.80;3.37;;;;;;;21.96;65.05;100726.03;1634125;85;21158;-88
2021/06/07 06:27:52;;;;;;;6.35;3.12;;;;;;;22.04;65.00;100730.36;1624425;85;21807;-88
2021/06/07 06:30:23;;;;;;;10.45;3.33;;;;;;;22.14;64.66;100735.03;1624692;85;21171;-89
2021/06/07 06:32:55;;;;;;;12.03;3.35;;;;;;;22.23;63.90;100732.91;1602832;86;21185;-89
2021/06/07 06:35:23;;;;;;;11.28;3.50;;;;;;;22.32;62.80;100729.38;1632845;85;21102;-88
2021/06/07 06:37:50;;;;;;;9.00;3.12;;;;;;;22.41;62.56;100728.20;1629843;85;22367;-88
2021/06/07 06:40:31;;;;;;;8.90;3.42;;;;;;;22.52;61.69;100736.88;1622800;85;21119;-88
2021/06/07 06:42:58;;;;;;;7.65;3.02;;;;;;;22.59;62.07;100738.10;1622338;86;21177;-88
2021/06/07 06:45:26;;;;;;;7.55;3.37;;;;;;;22.67;61.62;100742.91;1626532;86;21540;-88
2021/06/07 06:47:56;;;;;;;8.40;3.45;;;;;;;22.78;61.44;100741.45;1621646;86;21090;-88
2021/06/07 06:50:34;;;;;;;6.83;3.10;;;;;;;22.89;61.41;100740.03;1624038;85;21708;-89
2021/06/07 06:53:02;;;;;;;13.45;3.33;;;;;;;23.03;59.70;100744.77;1621256;86;21101;-86
2021/06/07 06:55:32;;;;;;;9.63;3.30;;;;;;;23.15;58.88;100740.96;1619016;86;21215;-88
2021/06/07 06:57:59;;;;;;;9.35;3.33;;;;;;;23.24;58.26;100742.50;1625708;85;21031;-90
2021/06/07 07:00:40;;;;;;;12.70;2.95;;;;;;;23.31;57.85;100736.86;1621536;86;21146;-90
2021/06/07 07:03:20;;;;;;;13.83;3.40;;;;;;;23.41;57.28;100735.05;1621882;85;21146;-91
2021/06/07 07:05:47;;;;;;;15.43;3.40;;;;;;;23.54;57.00;100733.92;1622071;86;21153;-90
2021/06/07 07:08:14;;;;;;;12.58;3.20;;;;;;;23.63;56.87;100739.95;1629810;85;20975;-91
2021/06/07 07:10:45;;;;;;;14.45;3.60;;;;;;;23.73;56.34;100736.72;1631485;85;21359;-90
2021/06/07 07:13:14;;;;;;;10.93;3.75;;;;;;;23.84;55.49;100738.99;1649389;85;21599;-90
2021/06/07 07:16:25;;;;;;;9.13;3.15;;;;;;;23.87;56.32;100731.86;1647868;85;21583;-91
2021/06/07 07:18:52;;;;;;;7.65;3.33;;;;;;;23.96;56.51;100746.05;1643839;85;21105;-91
2021/06/07 07:21:22;;;;;;;8.63;3.40;;;;;;;24.16;55.99;100750.22;1652699;85;21775;-89
2021/06/07 07:23:48;;;;;;;9.00;2.70;;;;;;;24.36;55.44;100744.76;1648554;85;21018;-89
2021/06/07 07:26:15;;;;;;;6.83;2.80;;;;;;;24.46;54.47;100742.89;1648053;85;21070;-89
2021/06/07 07:28:43;;;;;;;13.18;5.60;;;;;;;24.52;52.92;100746.91;1649173;85;21094;-89
2021/06/07 07:31:11;;;;;;;9.70;3.62;;;;;;;24.64;53.20;100748.98;1634635;86;22121;-89
2021/06/07 07:33:45;;;;;;;10.93;3.10;;;;;;;24.67;55.07;100748.72;1647327;85;20920;-89
2021/06/07 07:36:15;;;;;;;5.72;3.27;;;;;;;24.64;55.16;100752.61;1643989;85;21101;-89
2021/06/07 07:38:42;;;;;;;9.35;3.10;;;;;;;24.66;54.23;100751.10;1646309;85;21176;-89
2021/06/07 07:41:12;;;;;;;15.35;3.77;;;;;;;24.69;54.26;100749.44;1645587;85;21035;-89
2021/06/07 07:43:40;;;;;;;8.80;3.62;;;;;;;24.67;55.20;100745.98;1648847;85;21105;-89
2021/06/07 07:46:12;;;;;;;7.70;3.17;;;;;;;24.67;56.46;100748.72;1634650;86;21207;-92
2021/06/07 07:48:39;;;;;;;8.93;3.33;;;;;;;24.73;57.00;100746.76;1645830;85;21125;-92
2021/06/07 07:51:09;;;;;;;10.70;3.30;;;;;;;24.86;56.63;100748.69;1648861;85;21164;-89
2021/06/07 07:53:36;;;;;;;6.00;3.10;;;;;;;24.95;54.78;100740.61;1647233;85;21062;-89
2021/06/07 07:56:07;;;;;;;6.75;2.58;;;;;;;24.99;53.56;100740.17;1647570;85;21508;-91
2021/06/07 07:58:36;;;;;;;5.75;3.08;;;;;;;25.02;52.75;100745.84;1649653;82;20990;-92
2021/06/07 08:01:03;;;;;;;11.75;2.90;;;;;;;25.02;52.51;100743.11;1653486;85;20991;-88
2021/06/07 08:03:30;;;;;;;6.92;2.50;;;;;;;25.00;50.91;100741.02;1676410;84;21739;-89
2021/06/07 08:06:00;;;;;;;9.65;2.87;;;;;;;25.00;50.86;100739.65;1677804;84;21009;-87
2021/06/07 08:08:29;;;;;;;6.50;2.95;;;;;;;25.07;51.57;100739.92;1671678;84;21298;-87
2021/06/07 08:11:17;;;;;;;7.83;3.00;;;;;;;25.12;51.21;100744.45;1667063;84;21149;-87
2021/06/07 08:13:44;;;;;;;13.75;2.83;;;;;;;25.21;51.05;100741.31;1661521;84;21239;-86
2021/06/07 08:16:12;;;;;;;8.25;2.80;;;;;;;25.37;50.15;100742.04;1661053;84;20999;-88
2021/06/07 08:18:40;;;;;;;4.00;2.50;;;;;;;25.48;49.49;100747.38;1663528;84;21652;-86
2021/06/07 08:21:09;;;;;;;4.83;2.52;;;;;;;25.56;49.58;100751.59;1661053;84;21174;-85
2021/06/07 08:23:36;;;;;;;8.55;3.20;;;;;;;25.57;47.25;100751.09;1661145;84;21050;-85
2021/06/07 08:26:05;;;;;;;8.88;3.27;;;;;;;25.52;47.01;100757.03;1615668;86;20996;-87
2021/06/07 08:28:32;;;;;;;14.63;3.30;;;;;;;25.48;46.70;100753.36;1656513;84;21509;-86
2021/06/07 08:31:01;;;;;;;8.40;3.12;;;;;;;25.44;48.19;100752.27;1636024;84;21061;-87
2021/06/07 08:33:29;;;;;;;8.23;3.02;;;;;;;25.44;48.84;100753.64;1653434;84;21542;-85
2021/06/07 08:35:58;;;;;;;5.47;3.05;;;;;;;25.52;49.31;100754.29;1638402;85;21611;-85
2021/06/07 08:38:25;;;;;;;10.80;2.50;;;;;;;25.58;49.15;100752.83;1657565;84;21524;-90
2021/06/07 08:40:53;;;;;;;8.45;2.77;;;;;;;25.64;46.55;100764.55;1657246;84;21499;-86
2021/06/07 08:43:22;;;;;;;8.70;2.77;;;;;;;25.76;44.94;100768.48;1656785;84;21487;-87
2021/06/07 08:45:48;;;;;;;7.80;2.70;;;;;;;25.78;46.30;100764.55;1654471;84;21126;-84
2021/06/07 08:48:16;;;;;;;8.30;2.90;;;;;;;25.76;47.25;100754.76;1654580;84;21076;-85
2021/06/07 08:50:42;;;;;;;11.75;2.85;;;;;;;25.79;46.26;100758.56;1655286;84;21024;-85
2021/06/07 08:53:09;;;;;;;12.78;2.58;;;;;;;25.85;44.48;100767.55;1654698;84;21521;-85
2021/06/07 08:55:39;;;;;;;7.72;2.25;;;;;;;25.81;43.64;100763.39;1654627;84;21463;-84
2021/06/07 08:58:05;;;;;;;12.40;2.92;;;;;;;25.73;43.86;100762.78;1654837;84;22749;-82
2021/06/07 09:00:37;;;;;;;6.15;2.30;;;;;;;25.71;44.53;100758.80;1656674;84;21026;-84
2021/06/07 09:03:08;;;;;;;12.13;2.60;;;;;;;25.74;44.68;100765.87;1657870;84;34071;-84
2021/06/07 09:05:36;;;;;;;5.45;2.27;;;;;;;25.77;44.94;100764.72;1657431;84;21094;-84
2021/06/07 09:08:12;;;;;;;4.92;1.62;;;;;;;25.79;45.68;100764.05;1656534;84;20961;-83
2021/06/07 09:10:46;;;;;;;6.60;2.45;;;;;;;25.78;44.53;100762.33;1653949;84;22158;-84
2021/06/07 09:13:15;;;;;;;4.78;2.08;;;;;;;25.85;43.97;100764.80;1656093;85;21051;-83
2021/06/07 09:15:46;;;;;;;11.75;2.60;;;;;;;25.95;44.78;100760.62;1656476;84;21444;-85
2021/06/07 09:18:17;;;;;;;9.05;2.17;;;;;;;26.01;44.44;100767.75;1657867;84;20888;-85
2021/06/07 09:20:46;;;;;;;10.30;2.30;;;;;;;25.94;44.18;100754.25;1644951;84;20896;-84
2021/06/07 09:23:14;;;;;;;8.43;2.50;;;;;;;25.95;43.96;100755.13;1657624;84;21564;-84
2021/06/07 09:25:45;;;;;;;5.55;2.02;;;;;;;26.05;44.27;100757.29;1659990;84;20982;-84
2021/06/07 09:28:22;;;;;;;8.98;2.10;;;;;;;26.16;42.72;100761.69;1634666;85;21013;-84
2021/06/07 09:31:00;;;;;;;6.42;2.30;;;;;;;26.10;43.20;100755.46;1660403;84;21014;-83
2021/06/07 09:33:37;;;;;;;9.83;2.58;;;;;;;26.10;43.43;100755.46;1654636;84;21408;-84
2021/06/07 09:36:29;;;;;;;4.90;2.50;;;;;;;26.16;43.69;100757.11;1636337;84;21098;-84
2021/06/07 09:39:05;;;;;;;5.53;2.00;;;;;;;26.29;44.39;100755.84;1656392;84;21099;-83
2021/06/07 09:41:52;;;;;;;4.00;2.30;;;;;;;26.30;44.46;100758.45;1654176;85;21028;-83
2021/06/07 09:44:43;;;;;;;5.83;2.80;;;;;;;26.23;45.09;100749.11;1653441;84;21033;-84
2021/06/07 09:47:34;;;;;;;6.87;2.20;;;;;;;26.27;45.60;100745.02;1657549;84;21035;-85
2021/06/07 09:50:07;;;;;;;6.70;2.30;;;;;;;26.35;44.64;100754.36;1657174;84;21017;-85
2021/06/07 09:52:52;;;;;;;6.22;2.42;;;;;;;26.41;43.60;100741.34;1656797;84;21011;-84
2021/06/07 09:55:26;;;;;;;8.65;2.80;;;;;;;26.55;44.12;100754.55;1657233;84;21074;-84
2021/06/07 09:58:05;;;;;;;6.53;2.20;;;;;;;26.55;44.83;100747.67;1663593;84;21088;-84
2021/06/07 10:00:42;;;;;;;7.97;2.50;;;;;;;26.46;45.30;100731.61;1658195;84;20997;-83
2021/06/07 10:03:18;;;;;;;5.30;2.00;;;;;;;26.54;44.83;100740.45;1659436;84;21706;-83
2021/06/07 10:05:46;;;;;;;8.00;2.15;;;;;;;26.52;44.63;100738.37;1665335;84;21067;-85
2021/06/07 10:08:12;;;;;;;5.65;2.30;;;;;;;26.45;43.12;100746.91;1640083;85;21477;-85
2021/06/07 10:10:40;;;;;;;10.38;2.10;;;;;;;26.35;42.60;100739.24;1660766;84;21106;-87
2021/06/07 10:13:09;;;;;;;5.70;2.45;;;;;;;26.28;42.34;100735.76;1662616;84;20976;-85
2021/06/07 10:15:43;;;;;;;4.47;2.05;;;;;;;26.30;42.01;100737.84;1661775;84;21201;-84
2021/06/07 10:18:16;;;;;;;4.17;2.20;;;;;;;26.37;42.23;100740.83;1641815;84;21112;-86
2021/06/07 10:20:49;;;;;;;5.95;2.25;;;;;;;26.36;41.25;100732.72;1662490;84;20969;-85
2021/06/07 10:23:27;;;;;;;11.10;2.45;;;;;;;26.28;41.45;100728.89;1665997;84;21210;-85
2021/06/07 10:26:21;;;;;;;17.10;3.52;;;;;;;26.23;41.88;100735.37;1660293;84;21020;-86
2021/06/07 10:28:59;;;;;;;8.38;2.30;;;;;;;26.29;42.31;100732.48;1616681;84;21318;-86
2021/06/07 10:31:27;;;;;;;4.05;2.17;;;;;;;26.32;42.77;100736.32;1661998;84;21099;-86
2021/06/07 10:34:02;;;;;;;6.45;2.22;;;;;;;26.25;43.29;100724.21;1659303;84;21027;-86
2021/06/07 10:36:39;;;;;;;7.85;2.52;;;;;;;26.11;43.44;100727.84;1663642;84;21351;-85
2021/06/07 10:39:22;;;;;;;4.65;2.27;;;;;;;26.01;42.90;100725.17;1657945;84;21456;-85
2021/06/07 10:42:16;;;;;;;9.78;2.40;;;;;;;25.89;43.30;100725.91;1660239;84;21134;-85
2021/06/07 10:44:55;;;;;;;7.40;2.50;;;;;;;25.92;43.94;100717.84;1657994;84;21525;-84
2021/06/07 10:47:28;;;;;;;3.65;2.20;;;;;;;25.99;43.74;100719.47;1662896;84;21106;-84
2021/06/07 10:50:11;;;;;;;4.45;2.50;;;;;;;25.94;43.27;100711.69;1662425;84;21010;-85
2021/06/07 10:52:53;;;;;;;7.10;2.22;;;;;;;25.88;43.36;100712.31;1662269;84;21046;-85
2021/06/07 10:55:24;;;;;;;6.00;2.55;;;;;;;25.83;44.58;100709.18;1642957;86;21593;-83
2021/06/07 10:58:03;;;;;;;10.08;2.37;;;;;;;25.76;43.77;100709.45;1662698;84;20986;-85
2021/06/07 11:00:42;;;;;;;7.60;2.37;;;;;;;25.59;44.01;100713.38;1663050;84;21121;-85
2021/06/07 11:03:21;;;;;;;10.00;2.37;;;;;;;25.45;44.27;100699.11;1661582;84;20998;-85
2021/06/07 11:05:53;;;;;;;8.58;2.17;;;;;;;25.40;43.09;100710.17;1636633;84;21130;-84
2021/06/07 11:08:30;;;;;;;6.20;2.50;;;;;;;25.36;42.84;100705.52;1656912;84;22520;-84
2021/06/07 11:11:13;;;;;;;6.75;2.22;;;;;;;25.35;43.07;100700.17;1655380;85;21121;-84
2021/06/07 11:14:01;;;;;;;10.32;2.20;;;;;;;25.39;44.32;100694.23;1653075;85;21069;-85
2021/06/07 11:16:39;;;;;;;7.03;2.10;;;;;;;25.41;44.62;100690.83;1666736;84;20987;-84
2021/06/07 11:19:10;;;;;;;5.50;2.05;;;;;;;25.44;43.42;100686.92;1601690;87;21074;-84
2021/06/07 11:21:58;;;;;;;6.05;2.55;;;;;;;25.51;44.12;100684.44;1631438;85;33161;-83
2021/06/07 11:24:38;;;;;;;7.92;2.40;;;;;;;25.56;44.49;100684.34;1649895;85;233271;-84
2021/06/07 11:27:07;;;;;;;6.67;2.20;;;;;;;25.59;44.58;100683.19;1656600;85;21050;-84
2021/06/07 11:29:35;;;;;;;5.40;2.02;;;;;;;25.54;44.95;100677.30;1652691;85;21142;-84
2021/06/07 11:32:14;;;;;;;7.17;2.60;;;;;;;25.52;45.14;100673.81;1654633;85;21000;-84
2021/06/07 11:35:21;;;;;;;5.00;2.20;;;;;;;25.59;44.82;100667.56;1657048;85;21653;-84
2021/06/07 11:37:44;;;;;;;5.70;2.72;;;;;;;25.74;44.85;100666.52;1637404;85;21529;-85
2021/06/07 11:40:13;;;;;;;6.28;2.08;;;;;;;25.97;44.80;100663.84;1663816;85;21042;-85